createdAt,value
2018-03-04T09:09:08.069Z,50.67
2018-03-04T09:11:37.663Z,51.72
2018-03-04T09:14:09.200Z,50.70
2018-03-04T09:16:40.936Z,50.61
2018-03-04T09:19:11.046Z,49.34
2018-03-04T09:21:46.118Z,50.33
2018-03-04T09:24:16.722Z,49.77
2018-03-04T09:26:49.130Z,49.10
2018-03-04T09:29:22.077Z,49.86
2018-03-04T09:31:54.046Z,49.10
2018-03-04T09:34:27.555Z,49.42
2018-03-04T09:36:59.018Z,49.33
2018-03-04T11:55:59.301Z,45.03
2018-03-04T11:58:29.232Z,44.50
2018-03-04T12:00:59.794Z,44.89
2018-03-04T12:03:30.643Z,44.65
2018-03-04T12:06:00.800Z,44.83
2018-03-04T12:08:31.576Z,45.65
2018-03-04T12:11:01.155Z,45.46
2018-03-04T12:13:31.239Z,47.07
2018-03-04T12:16:01.082Z,48.65
2018-03-04T12:18:31.753Z,47.24
2018-03-04T12:21:01.516Z,46.82
2018-03-04T12:23:32.225Z,45.75
2018-03-04T12:26:02.180Z,45.34
2018-03-04T12:28:33.564Z,44.28
2018-03-04T12:31:02.911Z,45.26
2018-03-04T12:33:32.309Z,44.98
2018-03-04T12:36:02.404Z,45.40
2018-03-04T12:38:32.123Z,46.27
2018-03-04T12:41:01.832Z,46.51
2018-03-04T12:43:31.665Z,46.34
2018-03-04T12:46:01.484Z,46.34
2018-03-04T12:48:32.308Z,45.74
2018-03-04T12:51:02.136Z,47.42
2018-03-04T12:53:32.971Z,47.80
2018-03-04T12:56:02.787Z,47.88
2018-03-04T12:58:33.637Z,47.81
2018-03-04T13:01:04.584Z,46.02
2018-03-04T13:03:34.802Z,46.91
2018-03-04T13:06:04.883Z,45.75
2018-03-04T13:08:34.336Z,46.29
2018-03-04T13:11:04.088Z,46.51
2018-03-04T13:13:33.858Z,48.31
2018-03-04T13:16:04.736Z,46.73
2018-03-04T13:18:34.060Z,46.24
2018-03-04T13:21:03.355Z,45.12
2018-03-04T13:23:33.357Z,45.27
2018-03-04T13:26:02.639Z,44.74
2018-03-04T13:28:32.725Z,43.26
2018-03-04T13:31:04.554Z,45.63
2018-03-04T13:33:33.898Z,46.87
2018-03-04T13:36:03.226Z,46.03
2018-03-04T13:38:32.744Z,45.40
2018-03-04T13:41:02.664Z,44.62
2018-03-04T13:43:32.506Z,45.98
2018-03-04T13:46:03.178Z,45.15
2018-03-04T13:48:32.600Z,45.10
2018-03-04T13:51:02.666Z,44.53
2018-03-04T13:53:31.930Z,44.40
2018-03-04T13:56:08.572Z,45.62
2018-03-04T13:58:40.491Z,46.48
2018-03-04T14:01:09.927Z,47.79
2018-03-04T14:03:40.686Z,48.31
2018-03-04T14:06:10.991Z,48.33
2018-03-04T14:08:51.538Z,47.24
2018-03-04T14:11:22.438Z,46.95
2018-03-04T14:13:52.136Z,48.49
2018-03-04T14:16:21.995Z,50.82
2018-03-04T14:18:59.536Z,51.33
2018-03-04T14:21:50.988Z,50.25
2018-03-04T14:27:20.362Z,51.71
2018-03-04T14:30:18.858Z,50.96
2018-03-04T14:33:02.793Z,50.27
2018-03-04T14:35:48.451Z,50.92
2018-03-04T14:38:25.100Z,51.52
2018-03-04T14:41:36.231Z,50.50
2018-03-04T15:06:59.967Z,49.38
2018-03-04T15:09:31.909Z,48.53
2018-03-04T15:12:05.697Z,46.28
